createdAt,value
2018-06-11T00:01:29.396Z,11.73
2018-06-11T00:03:57.824Z,11.27
2018-06-11T00:06:26.233Z,11.50
2018-06-11T00:08:54.651Z,11.10
2018-06-11T00:11:23.051Z,11.20
2018-06-11T00:13:51.485Z,11.63
2018-06-11T00:16:19.892Z,13.30
2018-06-11T00:18:48.335Z,11.67
2018-06-11T00:21:16.752Z,13.37
2018-06-11T00:23:45.168Z,10.87
2018-06-11T00:26:13.605Z,11.10
2018-06-11T00:28:42.039Z,11.60
2018-06-11T00:31:10.435Z,12.80
2018-06-11T00:33:38.859Z,10.90
2018-06-11T00:36:07.282Z,11.43
2018-06-11T00:38:35.708Z,12.47
2018-06-11T00:41:04.112Z,13.00
2018-06-11T00:43:32.547Z,12.93
2018-06-11T00:46:00.952Z,12.47
2018-06-11T00:48:29.404Z,11.23
2018-06-11T00:50:57.825Z,11.73
2018-06-11T00:53:26.263Z,10.73
2018-06-11T00:56:05.850Z,11.73
2018-06-11T00:58:34.324Z,19.13
2018-06-11T01:01:02.870Z,12.27
2018-06-11T01:03:31.316Z,11.83
2018-06-11T01:05:59.745Z,12.57
2018-06-11T01:08:28.156Z,13.13
2018-06-11T01:10:56.595Z,12.40
2018-06-11T01:13:24.999Z,14.00
2018-06-11T01:15:53.456Z,12.60
2018-06-11T01:18:21.864Z,12.27
2018-06-11T01:20:50.291Z,15.00
2018-06-11T01:23:18.717Z,14.20
2018-06-11T01:25:47.143Z,13.23
2018-06-11T01:28:15.564Z,12.97
2018-06-11T01:30:44.008Z,12.70
2018-06-11T01:33:12.411Z,12.90
2018-06-11T01:35:40.845Z,12.60
2018-06-11T01:38:09.252Z,11.70
2018-06-11T01:40:37.669Z,11.07
2018-06-11T01:43:06.074Z,13.17
2018-06-11T01:45:34.615Z,13.93
2018-06-11T01:48:03.021Z,12.80
2018-06-11T01:50:31.424Z,12.73
2018-06-11T01:52:59.857Z,13.07
2018-06-11T01:55:28.272Z,14.03
2018-06-11T01:57:56.735Z,15.40
2018-06-11T02:00:25.164Z,12.23
2018-06-11T02:02:53.577Z,13.37
2018-06-11T02:05:21.988Z,14.37
2018-06-11T02:07:50.412Z,14.40
2018-06-11T02:10:18.827Z,13.23
2018-06-11T02:12:47.251Z,13.43
2018-06-11T02:15:15.692Z,13.40
2018-06-11T02:17:44.125Z,12.30
2018-06-11T02:20:12.537Z,12.77
2018-06-11T02:22:40.959Z,15.30
2018-06-11T02:25:09.376Z,14.80
2018-06-11T02:27:37.843Z,14.40
2018-06-11T02:30:06.257Z,14.37
2018-06-11T02:32:34.704Z,14.93
2018-06-11T02:35:03.124Z,15.03
2018-06-11T02:37:31.565Z,13.83
2018-06-11T02:39:59.973Z,13.90
2018-06-11T02:42:28.379Z,15.73
2018-06-11T02:44:56.804Z,13.90
2018-06-11T02:47:25.208Z,14.33
2018-06-11T02:49:53.642Z,13.93
2018-06-11T02:52:22.059Z,13.60
2018-06-11T02:54:50.488Z,15.47
2018-06-11T02:57:18.912Z,14.37
2018-06-11T02:59:47.330Z,14.23
2018-06-11T03:02:15.766Z,15.50
2018-06-11T03:04:44.193Z,15.40
2018-06-11T03:07:12.618Z,13.47
2018-06-11T03:09:41.070Z,14.33
2018-06-11T03:12:09.479Z,14.83
2018-06-11T03:14:37.892Z,15.17
2018-06-11T03:17:06.324Z,14.60
2018-06-11T03:19:34.727Z,15.93
2018-06-11T03:22:03.155Z,13.97
2018-06-11T03:24:31.564Z,14.70
2018-06-11T03:26:59.988Z,15.83
2018-06-11T03:29:28.400Z,16.40
2018-06-11T03:31:56.907Z,16.27
2018-06-11T03:34:25.324Z,15.77
2018-06-11T03:36:53.743Z,14.90
2018-06-11T03:39:22.163Z,15.17
2018-06-11T03:41:50.579Z,14.73
2018-06-11T03:44:18.983Z,15.20
2018-06-11T03:46:47.404Z,15.90
2018-06-11T03:49:15.812Z,17.03
2018-06-11T03:51:44.231Z,16.80
2018-06-11T03:54:12.621Z,17.87
2018-06-11T03:56:41.035Z,18.83
2018-06-11T03:59:09.411Z,17.10
2018-06-11T04:01:37.828Z,17.00
2018-06-11T04:04:06.215Z,15.10
2018-06-11T04:06:34.669Z,16.67
2018-06-11T04:09:03.142Z,15.63
2018-06-11T04:11:31.539Z,14.53
2018-06-11T04:13:59.644Z,15.00
2018-06-11T04:16:28.036Z,14.10
2018-06-11T04:18:56.445Z,13.77
2018-06-11T04:21:24.843Z,14.50
2018-06-11T04:23:53.251Z,14.97
2018-06-11T04:26:21.628Z,14.33
2018-06-11T04:28:50.028Z,14.80
2018-06-11T04:31:18.421Z,14.47
2018-06-11T04:33:46.839Z,15.13
2018-06-11T04:36:15.228Z,17.47
2018-06-11T04:38:43.636Z,14.87
2018-06-11T04:41:12.017Z,14.87
2018-06-11T04:43:40.412Z,15.20
2018-06-11T04:46:08.796Z,14.13
2018-06-11T04:48:37.203Z,13.53
2018-06-11T04:51:05.591Z,15.43
2018-06-11T04:53:33.971Z,12.23
2018-06-11T04:56:02.388Z,14.67
2018-06-11T04:58:30.765Z,14.50
2018-06-11T05:00:59.178Z,14.03
2018-06-11T05:03:27.569Z,14.03
2018-06-11T05:05:55.973Z,14.17
2018-06-11T05:08:24.356Z,15.80
2018-06-11T05:10:52.763Z,13.40
2018-06-11T05:13:21.141Z,14.07
2018-06-11T05:15:49.540Z,14.30
2018-06-11T05:18:17.935Z,13.13
2018-06-11T05:20:46.332Z,14.37
2018-06-11T05:23:14.719Z,14.10
2018-06-11T05:25:43.124Z,14.87
2018-06-11T05:28:11.516Z,14.53
2018-06-11T05:30:39.911Z,12.63
2018-06-11T05:33:08.301Z,12.07
2018-06-11T05:35:36.715Z,12.30
2018-06-11T05:38:05.437Z,13.03
2018-06-11T05:40:33.857Z,13.47
2018-06-11T05:43:02.256Z,13.50
2018-06-11T05:45:30.661Z,11.70
2018-06-11T05:47:59.107Z,13.47
2018-06-11T05:50:27.468Z,13.07
2018-06-11T05:52:55.872Z,13.13
2018-06-11T05:55:24.279Z,13.53
2018-06-11T05:57:52.679Z,12.60
2018-06-11T06:00:21.084Z,13.27
2018-06-11T06:02:49.495Z,11.93
2018-06-11T06:05:17.868Z,12.13
2018-06-11T06:07:45.977Z,12.13
2018-06-11T06:10:14.368Z,12.00
2018-06-11T06:12:42.772Z,11.30
2018-06-11T06:15:11.167Z,11.23
2018-06-11T06:17:39.570Z,11.33
2018-06-11T06:20:07.961Z,10.50
2018-06-11T06:22:36.379Z,12.40
2018-06-11T06:25:04.811Z,11.77
2018-06-11T06:27:33.208Z,11.17
2018-06-11T06:30:01.590Z,11.93
2018-06-11T06:32:30.002Z,11.67
2018-06-11T06:34:58.386Z,11.20
2018-06-11T06:37:26.759Z,11.67
2018-06-11T06:39:55.152Z,10.70
2018-06-11T06:42:23.536Z,10.80
2018-06-11T06:44:51.948Z,11.00
2018-06-11T06:47:20.328Z,11.87
2018-06-11T06:49:48.723Z,12.00
2018-06-11T06:52:17.094Z,11.00
2018-06-11T06:54:45.497Z,10.87
2018-06-11T06:57:13.872Z,11.20
2018-06-11T06:59:42.273Z,11.67
2018-06-11T07:02:10.675Z,12.77
2018-06-11T07:04:39.088Z,11.50
2018-06-11T07:07:07.499Z,12.13
2018-06-11T07:09:35.904Z,12.60
2018-06-11T07:12:04.347Z,11.03
2018-06-11T07:14:32.750Z,12.17
2018-06-11T07:17:01.131Z,12.80
2018-06-11T07:19:29.523Z,12.23
2018-06-11T07:21:57.901Z,12.40
2018-06-11T07:24:26.312Z,12.80
2018-06-11T07:26:54.701Z,12.20
2018-06-11T07:29:23.120Z,13.50
2018-06-11T07:31:51.533Z,14.77
2018-06-11T07:34:19.931Z,14.23
2018-06-11T07:36:48.340Z,13.50
2018-06-11T07:39:16.736Z,15.87
2018-06-11T07:41:45.148Z,12.53
2018-06-11T07:44:13.538Z,13.90
2018-06-11T07:46:41.941Z,12.47
2018-06-11T07:49:10.327Z,13.27
2018-06-11T07:51:38.776Z,13.43
2018-06-11T07:54:07.240Z,13.37
2018-06-11T07:56:35.648Z,13.60
2018-06-11T07:59:04.073Z,11.87
2018-06-11T08:01:32.206Z,12.80
2018-06-11T08:04:00.632Z,13.30
2018-06-11T08:06:29.039Z,13.43
2018-06-11T08:08:57.431Z,15.37
2018-06-11T08:11:25.843Z,13.63
2018-06-11T08:13:54.255Z,12.97
2018-06-11T08:16:22.655Z,13.93
2018-06-11T08:18:51.060Z,16.40
2018-06-11T08:21:19.460Z,13.00
2018-06-11T08:23:47.851Z,12.57
2018-06-11T08:26:16.296Z,13.47
2018-06-11T08:28:44.681Z,13.20
2018-06-11T08:31:13.068Z,14.43
2018-06-11T08:33:41.478Z,13.40
2018-06-11T08:36:09.881Z,14.07
2018-06-11T08:38:38.296Z,15.00
2018-06-11T08:41:06.722Z,14.30
2018-06-11T08:43:35.201Z,14.70
2018-06-11T08:46:03.592Z,13.27
2018-06-11T08:48:31.988Z,12.70
2018-06-11T08:51:00.372Z,15.07
2018-06-11T08:53:28.763Z,12.20
2018-06-11T08:55:57.150Z,13.07
2018-06-11T08:58:25.551Z,13.20
2018-06-11T09:00:53.981Z,13.90
2018-06-11T09:03:22.371Z,13.07
2018-06-11T09:05:50.755Z,12.40
2018-06-11T09:08:19.159Z,11.00
2018-06-11T09:10:47.539Z,11.80
2018-06-11T09:13:15.952Z,10.80
2018-06-11T09:15:44.324Z,11.10
2018-06-11T09:18:12.848Z,10.60
2018-06-11T09:20:41.143Z,11.47
2018-06-11T09:23:09.530Z,13.73
2018-06-11T09:25:37.923Z,13.20
2018-06-11T09:28:06.320Z,11.10
2018-06-11T09:30:34.735Z,13.47
2018-06-11T09:33:03.133Z,15.70
2018-06-11T09:35:31.569Z,13.23
2018-06-11T09:37:59.976Z,12.97
2018-06-11T09:40:28.380Z,11.90
2018-06-11T09:42:56.762Z,12.30
2018-06-11T09:45:25.175Z,11.73
2018-06-11T09:47:53.560Z,14.20
2018-06-11T09:50:21.978Z,11.30
2018-06-11T09:52:50.367Z,11.70
2018-06-11T09:55:18.766Z,13.57
2018-06-11T09:57:47.168Z,11.33
2018-06-11T10:00:21.023Z,12.37
2018-06-11T10:02:49.428Z,13.27
2018-06-11T10:05:17.821Z,13.20
2018-06-11T10:07:46.237Z,12.43
2018-06-11T10:10:14.620Z,11.83
2018-06-11T10:12:43.056Z,13.00
2018-06-11T10:15:11.453Z,13.40
2018-06-11T10:17:39.847Z,12.30
2018-06-11T10:20:08.276Z,10.33
2018-06-11T10:22:36.667Z,11.60
2018-06-11T10:25:05.249Z,11.17
2018-06-11T10:27:33.653Z,13.50
2018-06-11T10:30:02.049Z,12.17
2018-06-11T10:32:30.475Z,12.93
2018-06-11T10:34:58.851Z,11.63
2018-06-11T10:37:27.248Z,12.80
2018-06-11T10:39:55.632Z,12.43
2018-06-11T10:42:24.040Z,12.80
2018-06-11T10:44:52.452Z,12.67
2018-06-11T10:47:21.295Z,13.53
2018-06-11T10:49:49.695Z,13.60
2018-06-11T10:52:18.068Z,13.27
2018-06-11T10:54:46.482Z,12.77
2018-06-11T10:57:14.869Z,12.87
2018-06-11T10:59:43.266Z,11.90
2018-06-11T11:02:11.383Z,12.87
2018-06-11T11:04:39.794Z,12.27
2018-06-11T11:07:08.181Z,12.50
2018-06-11T11:09:36.592Z,12.63
2018-06-11T11:12:05.009Z,12.30
2018-06-11T11:14:33.422Z,11.87
2018-06-11T11:17:02.191Z,11.63
2018-06-11T11:19:30.595Z,12.27
2018-06-11T11:21:58.976Z,12.60
2018-06-11T11:24:27.372Z,11.20
2018-06-11T11:26:55.772Z,11.17
2018-06-11T11:29:24.218Z,12.83
2018-06-11T11:31:52.647Z,12.20
2018-06-11T11:34:21.072Z,11.80
2018-06-11T11:36:49.451Z,12.83
2018-06-11T11:39:17.833Z,12.20
2018-06-11T11:41:46.236Z,11.20
2018-06-11T11:44:14.615Z,11.23
2018-06-11T11:46:43.012Z,10.93
2018-06-11T11:49:11.397Z,12.90
2018-06-11T11:51:40.933Z,12.07
2018-06-11T11:54:09.403Z,12.07
2018-06-11T11:56:38.056Z,11.10
2018-06-11T11:59:06.487Z,11.37
2018-06-11T12:01:34.907Z,10.43
2018-06-11T12:04:03.294Z,10.63
2018-06-11T12:06:32.314Z,10.43
2018-06-11T12:09:02.120Z,10.90
2018-06-11T12:11:30.573Z,10.00
2018-06-11T12:13:58.947Z,12.30
2018-06-11T12:16:27.360Z,10.50
2018-06-11T12:18:55.735Z,14.97
2018-06-11T12:21:25.520Z,12.13
2018-06-11T12:23:55.846Z,12.13
2018-06-11T12:26:25.728Z,10.77
2018-06-11T12:28:57.253Z,12.33
2018-06-11T12:31:28.284Z,11.63
2018-06-11T12:33:59.414Z,10.60
2018-06-11T12:36:27.920Z,12.03
2018-06-11T12:38:56.303Z,11.60
2018-06-11T12:41:24.685Z,12.00
2018-06-11T12:43:52.808Z,13.30
2018-06-11T12:46:21.197Z,10.97
2018-06-11T12:48:49.596Z,12.13
2018-06-11T12:51:17.987Z,11.43
2018-06-11T12:53:46.380Z,11.73
2018-06-11T12:56:14.803Z,11.83
2018-06-11T12:58:43.191Z,14.53
2018-06-11T13:01:11.601Z,16.50
2018-06-11T13:03:40.001Z,13.40
2018-06-11T13:06:08.396Z,17.20
2018-06-11T13:08:36.792Z,15.67
2018-06-11T13:11:05.192Z,14.77
2018-06-11T13:13:33.610Z,14.17
2018-06-11T13:16:02.001Z,17.13
2018-06-11T13:18:30.406Z,15.30
2018-06-11T13:20:58.819Z,15.03
2018-06-11T13:23:27.228Z,16.53
2018-06-11T13:25:55.631Z,15.07
2018-06-11T13:28:24.035Z,15.30
2018-06-11T13:30:52.415Z,15.33
2018-06-11T13:33:20.857Z,18.70
2018-06-11T13:35:49.248Z,15.57
2018-06-11T13:38:17.637Z,16.83
2018-06-11T13:40:46.033Z,14.93
2018-06-11T13:43:14.412Z,15.00
2018-06-11T13:45:42.823Z,16.20
2018-06-11T13:48:11.215Z,17.93
2018-06-11T13:50:39.615Z,17.50
2018-06-11T13:53:08.034Z,16.70
2018-06-11T13:55:36.459Z,16.10
2018-06-11T13:58:04.948Z,16.23
2018-06-11T14:00:33.387Z,15.43
2018-06-11T14:03:01.774Z,16.50
2018-06-11T14:05:30.180Z,15.73
2018-06-11T14:07:58.603Z,15.53
2018-06-11T14:10:26.979Z,17.20
2018-06-11T14:12:55.364Z,16.27
2018-06-11T14:15:23.769Z,16.90
2018-06-11T14:17:52.151Z,15.63
2018-06-11T14:20:20.560Z,15.57
2018-06-11T14:22:49.019Z,15.63
2018-06-11T14:25:17.419Z,15.97
2018-06-11T14:27:45.812Z,16.57
2018-06-11T14:30:14.195Z,17.03
2018-06-11T14:32:42.596Z,15.80
2018-06-11T14:35:10.983Z,16.97
2018-06-11T14:37:39.412Z,15.40
2018-06-11T14:40:07.807Z,17.53
2018-06-11T14:42:36.212Z,15.20
2018-06-11T14:45:04.935Z,16.17
2018-06-11T14:47:33.333Z,16.47
2018-06-11T14:50:01.721Z,15.43
2018-06-11T14:52:30.123Z,16.30
2018-06-11T14:54:58.502Z,16.30
2018-06-11T14:57:26.911Z,17.70
2018-06-11T14:59:55.295Z,14.80
2018-06-11T15:02:23.706Z,17.30
2018-06-11T15:04:52.092Z,16.63
2018-06-11T15:07:20.487Z,17.40
2018-06-11T15:09:48.880Z,15.40
2018-06-11T15:12:17.298Z,17.87
2018-06-11T15:14:45.688Z,15.87
2018-06-11T15:17:14.068Z,16.73
2018-06-11T15:19:42.482Z,16.70
2018-06-11T15:22:10.885Z,18.33
2018-06-11T15:24:39.503Z,17.10
2018-06-11T15:27:07.884Z,17.10
2018-06-11T15:29:36.292Z,18.10
2018-06-11T15:32:04.708Z,15.97
2018-06-11T15:34:33.109Z,16.60
2018-06-11T15:37:01.584Z,16.30
2018-06-11T15:39:29.987Z,17.77
2018-06-11T15:41:58.372Z,17.07
2018-06-11T15:44:26.780Z,16.13
2018-06-11T15:46:55.161Z,16.47
2018-06-11T15:49:23.551Z,16.67
2018-06-11T15:51:51.928Z,16.10
2018-06-11T15:54:20.322Z,15.53
2018-06-11T15:56:48.731Z,16.47
2018-06-11T15:59:17.144Z,15.37
2018-06-11T16:01:45.556Z,15.07
2018-06-11T16:04:13.979Z,14.83
2018-06-11T16:06:42.355Z,16.07
2018-06-11T16:09:10.752Z,17.37
2018-06-11T16:11:39.133Z,17.33
2018-06-11T16:14:07.535Z,15.90
2018-06-11T16:16:35.929Z,18.43
2018-06-11T16:19:11.139Z,17.80
2018-06-11T16:21:39.528Z,18.47
2018-06-11T16:24:07.916Z,19.67
2018-06-11T16:26:36.323Z,18.97
2018-06-11T16:29:04.939Z,19.17
2018-06-11T16:31:33.368Z,20.50
2018-06-11T16:34:02.094Z,21.53
2018-06-11T16:36:30.501Z,20.90
2018-06-11T16:38:58.898Z,19.70
2018-06-11T16:41:27.319Z,21.50
2018-06-11T16:43:55.700Z,23.63
2018-06-11T16:46:24.108Z,24.50
2018-06-11T16:48:52.569Z,26.10
2018-06-11T16:51:20.926Z,28.83
2018-06-11T16:53:49.317Z,26.57
2018-06-11T16:56:17.723Z,26.80
2018-06-11T16:58:45.819Z,27.07
2018-06-11T17:01:14.287Z,25.90
2018-06-11T17:03:42.654Z,25.73
2018-06-11T17:06:11.053Z,26.17
2018-06-11T17:08:39.444Z,27.57
2018-06-11T17:11:07.851Z,26.47
2018-06-11T17:13:36.243Z,26.93
2018-06-11T17:16:04.663Z,35.17
2018-06-11T17:18:33.041Z,26.63
2018-06-11T17:21:01.459Z,28.63
2018-06-11T17:23:29.849Z,27.13
2018-06-11T17:25:58.251Z,32.00
2018-06-11T17:28:26.643Z,30.00
2018-06-11T17:30:55.028Z,25.50
2018-06-11T17:33:23.441Z,31.30
2018-06-11T17:35:51.835Z,25.60
2018-06-11T17:38:20.235Z,27.40
2018-06-11T17:40:48.624Z,32.00
2018-06-11T17:43:17.040Z,28.10
2018-06-11T17:45:45.430Z,28.97
2018-06-11T17:48:13.835Z,24.53
2018-06-11T17:50:42.215Z,29.17
2018-06-11T17:53:10.623Z,26.50
2018-06-11T17:55:39.018Z,24.03
2018-06-11T17:58:07.421Z,24.57
2018-06-11T18:00:35.877Z,28.87
2018-06-11T18:03:04.268Z,26.83
2018-06-11T18:05:32.701Z,29.23
2018-06-11T18:08:01.109Z,27.73
2018-06-11T18:10:29.487Z,26.67
2018-06-11T18:12:57.900Z,28.03
2018-06-11T18:15:26.302Z,28.30
2018-06-11T18:17:54.699Z,27.20
2018-06-11T18:20:23.091Z,27.73
2018-06-11T18:22:51.476Z,28.30
2018-06-11T18:25:19.872Z,25.83
2018-06-11T18:27:48.251Z,26.37
2018-06-11T18:30:16.652Z,24.53
2018-06-11T18:32:45.046Z,32.67
2018-06-11T18:35:13.456Z,28.00
2018-06-11T18:37:41.835Z,28.87
2018-06-11T18:40:10.249Z,26.80
2018-06-11T18:42:38.632Z,30.03
2018-06-11T18:45:07.051Z,28.13
2018-06-11T18:47:35.428Z,28.30
2018-06-11T18:50:03.957Z,29.03
2018-06-11T18:52:32.340Z,27.40
2018-06-11T18:55:00.740Z,31.13
2018-06-11T18:57:29.121Z,26.43
2018-06-11T18:59:57.549Z,32.00
2018-06-11T19:02:25.948Z,35.53
2018-06-11T19:04:54.364Z,27.57
2018-06-11T19:07:22.763Z,33.27
2018-06-11T19:09:51.156Z,33.87
2018-06-11T19:12:19.603Z,36.10
2018-06-11T19:14:47.976Z,42.00
2018-06-11T19:17:16.396Z,36.80
2018-06-11T19:19:44.767Z,37.17
2018-06-11T19:22:13.184Z,38.83
2018-06-11T19:24:41.566Z,41.03
2018-06-11T19:27:10.013Z,37.93
2018-06-11T19:29:38.468Z,45.53
2018-06-11T19:32:06.847Z,42.00
2018-06-11T19:34:35.232Z,41.73
2018-06-11T19:37:03.667Z,52.50
2018-06-11T19:39:32.300Z,41.47
2018-06-11T19:42:00.703Z,43.27
2018-06-11T19:44:29.131Z,41.00
2018-06-11T19:46:57.529Z,45.07
2018-06-11T19:49:25.923Z,46.47
2018-06-11T19:51:54.334Z,51.47
2018-06-11T19:54:22.763Z,54.57
2018-06-11T19:56:51.144Z,55.50
2018-06-11T19:59:19.532Z,55.10
2018-06-11T20:01:47.928Z,49.37
2018-06-11T20:04:16.338Z,52.20
2018-06-11T20:06:44.757Z,53.77
2018-06-11T20:09:13.177Z,56.47
2018-06-11T20:11:41.572Z,50.70
2018-06-11T20:14:10.813Z,51.63
2018-06-11T20:16:39.208Z,54.20
2018-06-11T20:19:07.624Z,55.57
2018-06-11T20:21:36.020Z,52.37
2018-06-11T20:24:04.467Z,56.53
2018-06-11T20:26:32.839Z,53.40
2018-06-11T20:29:01.244Z,51.50
2018-06-11T20:31:29.756Z,59.10
2018-06-11T20:33:57.866Z,49.83
2018-06-11T20:36:26.247Z,57.93
2018-06-11T20:38:54.667Z,61.53
2018-06-11T20:41:23.060Z,57.73
2018-06-11T20:43:51.452Z,59.30
2018-06-11T20:46:19.864Z,55.10
2018-06-11T20:48:48.236Z,53.83
2018-06-11T20:51:17.411Z,53.33
2018-06-11T20:53:45.796Z,54.30
2018-06-11T20:56:14.212Z,51.40
2018-06-11T20:58:42.595Z,49.80
2018-06-11T21:01:11.015Z,52.40
2018-06-11T21:03:39.400Z,49.87
2018-06-11T21:06:07.824Z,55.10
2018-06-11T21:08:36.202Z,45.13
2018-06-11T21:11:04.631Z,47.27
2018-06-11T21:13:33.008Z,43.70
2018-06-11T21:16:01.539Z,51.43
2018-06-11T21:18:29.976Z,49.67
2018-06-11T21:20:58.373Z,45.20
2018-06-11T21:23:26.754Z,44.33
2018-06-11T21:25:55.210Z,44.67
2018-06-11T21:28:23.579Z,44.47
2018-06-11T21:30:51.982Z,41.77
2018-06-11T21:33:20.383Z,39.77
2018-06-11T21:35:48.779Z,38.07
2018-06-11T21:38:17.156Z,41.60
2018-06-11T21:40:45.311Z,38.03
2018-06-11T21:43:13.693Z,48.00
2018-06-11T21:45:42.074Z,46.03
2018-06-11T21:48:10.460Z,51.40
2018-06-11T21:50:38.839Z,44.30
2018-06-11T21:53:07.240Z,44.70
2018-06-11T21:55:35.627Z,43.40
2018-06-11T21:58:04.081Z,41.03
2018-06-11T22:00:32.500Z,40.73
2018-06-11T22:03:00.916Z,38.47
2018-06-11T22:05:29.303Z,37.07
2018-06-11T22:07:57.714Z,36.63
2018-06-11T22:10:26.168Z,32.50
2018-06-11T22:12:54.557Z,34.17
2018-06-11T22:15:22.936Z,35.50
2018-06-11T22:17:51.335Z,36.60
2018-06-11T22:20:19.703Z,40.90
2018-06-11T22:22:48.117Z,39.07
2018-06-11T22:25:16.487Z,35.87
2018-06-11T22:27:44.895Z,33.30
2018-06-11T22:30:13.276Z,35.57
2018-06-11T22:32:41.664Z,43.23
2018-06-11T22:35:10.071Z,36.50
2018-06-11T22:37:38.460Z,39.67
2018-06-11T22:40:06.852Z,37.13
2018-06-11T22:42:35.236Z,37.97
2018-06-11T22:45:03.713Z,36.27
2018-06-11T22:47:32.088Z,34.90
2018-06-11T22:50:00.492Z,40.83
2018-06-11T22:52:28.866Z,34.53
2018-06-11T22:54:56.994Z,42.57
2018-06-11T22:57:25.380Z,38.57
2018-06-11T22:59:53.806Z,32.87
2018-06-11T23:02:22.220Z,35.00
2018-06-11T23:04:50.631Z,32.43
2018-06-11T23:07:19.020Z,35.30
2018-06-11T23:09:47.423Z,37.90
2018-06-11T23:12:15.825Z,42.37
2018-06-11T23:14:44.215Z,42.30
2018-06-11T23:17:12.611Z,39.00
2018-06-11T23:19:41.016Z,45.27
2018-06-11T23:22:09.399Z,43.37
2018-06-11T23:24:37.793Z,38.83
2018-06-11T23:27:06.184Z,38.37
2018-06-11T23:29:34.601Z,38.93
2018-06-11T23:32:02.976Z,34.30
2018-06-11T23:34:31.351Z,36.90
2018-06-11T23:36:59.739Z,31.80
2018-06-11T23:39:28.116Z,35.97
2018-06-11T23:41:56.527Z,30.00
2018-06-11T23:44:24.908Z,33.40
2018-06-11T23:46:53.318Z,34.67
2018-06-11T23:49:21.697Z,32.43
2018-06-11T23:51:50.085Z,36.60
2018-06-11T23:54:18.468Z,41.00
2018-06-11T23:56:46.871Z,36.23
2018-06-11T23:59:15.280Z,42.87
